TimeCDT,TemperatureF,Dew PointF,Humidity,Sea Level PressureIn,VisibilityMPH,Wind Direction,Wind SpeedMPH,Gust SpeedMPH,PrecipitationIn,Events,Conditions,WindDirDegrees,DateUTC
12:52 AM,48.0,39.0,71,30.22,10.0,NE,5.8,-,N/A,,Clear,40,2011-10-01 05:52:00
1:52 AM,46.9,37.9,71,30.24,10.0,NE,6.9,-,N/A,,Clear,40,2011-10-01 06:52:00
2:52 AM,46.0,37.0,71,30.25,10.0,NE,6.9,-,N/A,,Clear,40,2011-10-01 07:52:00
3:52 AM,44.6,37.4,76,30.26,10.0,NNE,5.8,-,N/A,,Clear,20,2011-10-01 08:52:00
4:52 AM,43.0,37.0,80,30.28,10.0,NNE,4.6,-,N/A,,Clear,30,2011-10-01 09:52:00
5:52 AM,41.0,36.0,82,30.30,10.0,North,3.5,-,N/A,,Clear,10,2011-10-01 10:52:00
6:52 AM,37.9,34.0,86,30.32,10.0,Calm,Calm,-,N/A,,Clear,0,2011-10-01 11:52:00
7:52 AM,41.0,36.0,82,30.35,10.0,Calm,Calm,-,N/A,,Clear,0,2011-10-01 12:52:00
8:52 AM,46.4,37.4,71,30.35,10.0,NNE,4.6,-,N/A,,Clear,20,2011-10-01 13:52:00
9:52 AM,48.9,37.9,66,30.37,10.0,ENE,4.6,-,N/A,,Clear,60,2011-10-01 14:52:00
10:52 AM,51.1,37.9,61,30.38,10.0,Calm,Calm,-,N/A,,Clear,0,2011-10-01 15:52:00
11:52 AM,54.0,36.0,51,30.36,10.0,Calm,Calm,-,N/A,,Clear,0,2011-10-01 16:52:00
12:52 PM,55.9,37.9,51,30.35,10.0,WNW,5.8,-,N/A,,Clear,300,2011-10-01 17:52:00
1:52 PM,59.0,37.9,46,30.33,10.0,Variable,4.6,-,N/A,,Clear,0,2011-10-01 18:52:00
2:52 PM,61.0,37.0,41,30.31,10.0,Variable,3.5,-,N/A,,Clear,0,2011-10-01 19:52:00
3:52 PM,62.1,36.0,38,30.29,10.0,Variable,3.5,-,N/A,,Clear,0,2011-10-01 20:52:00
4:52 PM,63.0,34.0,34,30.28,10.0,North,4.6,-,N/A,,Clear,10,2011-10-01 21:52:00
5:52 PM,61.0,33.1,35,30.27,10.0,NNE,4.6,-,N/A,,Clear,20,2011-10-01 22:52:00
6:52 PM,57.9,34.0,41,30.27,10.0,NE,3.5,-,N/A,,Clear,40,2011-10-01 23:52:00
7:52 PM,46.9,39.9,77,30.29,10.0,Calm,Calm,-,N/A,,Clear,0,2011-10-02 00:52:00
8:52 PM,44.6,39.2,81,30.28,10.0,Calm,Calm,-,N/A,,Clear,0,2011-10-02 01:52:00
9:52 PM,43.0,39.0,86,30.28,10.0,Calm,Calm,-,N/A,,Clear,0,2011-10-02 02:52:00
10:52 PM,41.0,37.9,89,30.29,10.0,Calm,Calm,-,N/A,,Clear,0,2011-10-02 03:52:00
11:52 PM,39.9,37.9,93,30.29,10.0,Calm,Calm,-,N/A,,Clear,0,2011-10-02 04:52:00